sensor_id;sensor_type;location;lat;lon;timestamp;P1;durP1;ratioP1;P2;durP2;ratioP2
63087;SDS011;49173;43.164;27.786;2023-02-01T00:00:19;28.73;;;17.35;;
63087;SDS011;49173;43.164;27.786;2023-02-01T00:02:50;24.65;;;13.23;;
63087;SDS011;49173;43.164;27.786;2023-02-01T00:05:15;40.33;;;20.50;;
63087;SDS011;49173;43.164;27.786;2023-02-01T00:07:42;28.95;;;17.83;;
63087;SDS011;49173;43.164;27.786;2023-02-01T00:10:08;20.83;;;13.05;;
63087;SDS011;49173;43.164;27.786;2023-02-01T00:12:34;18.08;;;12.00;;
63087;SDS011;49173;43.164;27.786;2023-02-01T00:15:00;19.65;;;11.73;;
63087;SDS011;49173;43.164;27.786;2023-02-01T00:17:26;18.35;;;10.32;;
63087;SDS011;49173;43.164;27.786;2023-02-01T00:19:51;17.10;;;10.93;;
63087;SDS011;49173;43.164;27.786;2023-02-01T00:22:17;18.60;;;10.48;;
63087;SDS011;49173;43.164;27.786;2023-02-01T00:24:43;15.65;;;9.85;;
63087;SDS011;49173;43.164;27.786;2023-02-01T00:27:09;16.08;;;9.52;;
63087;SDS011;49173;43.164;27.786;2023-02-01T00:29:35;17.30;;;10.65;;
63087;SDS011;49173;43.164;27.786;2023-02-01T00:32:00;14.60;;;9.82;;
63087;SDS011;49173;43.164;27.786;2023-02-01T00:34:26;20.95;;;12.25;;
63087;SDS011;49173;43.164;27.786;2023-02-01T00:36:52;20.30;;;12.30;;
63087;SDS011;49173;43.164;27.786;2023-02-01T00:39:18;22.00;;;13.00;;
63087;SDS011;49173;43.164;27.786;2023-02-01T00:41:45;19.35;;;11.55;;
63087;SDS011;49173;43.164;27.786;2023-02-01T00:44:11;39.83;;;19.85;;
63087;SDS011;49173;43.164;27.786;2023-02-01T00:46:37;72.72;;;33.97;;
63087;SDS011;49173;43.164;27.786;2023-02-01T00:49:02;74.22;;;35.72;;
63087;SDS011;49173;43.164;27.786;2023-02-01T00:51:29;88.55;;;39.47;;
63087;SDS011;49173;43.164;27.786;2023-02-01T00:53:55;64.95;;;30.20;;
63087;SDS011;49173;43.164;27.786;2023-02-01T00:56:21;36.05;;;19.67;;
63087;SDS011;49173;43.164;27.786;2023-02-01T00:58:48;32.10;;;16.80;;
63087;SDS011;49173;43.164;27.786;2023-02-01T01:03:45;23.17;;;13.40;;
63087;SDS011;49173;43.164;27.786;2023-02-01T01:06:13;21.40;;;11.95;;
63087;SDS011;49173;43.164;27.786;2023-02-01T01:08:41;32.38;;;17.35;;
63087;SDS011;49173;43.164;27.786;2023-02-01T01:11:08;39.90;;;21.15;;
63087;SDS011;49173;43.164;27.786;2023-02-01T01:13:36;25.92;;;15.70;;
63087;SDS011;49173;43.164;27.786;2023-02-01T01:16:03;22.05;;;13.27;;
63087;SDS011;49173;43.164;27.786;2023-02-01T01:18:30;46.50;;;22.58;;
63087;SDS011;49173;43.164;27.786;2023-02-01T01:20:56;25.10;;;15.45;;
63087;SDS011;49173;43.164;27.786;2023-02-01T01:23:23;20.58;;;11.23;;
63087;SDS011;49173;43.164;27.786;2023-02-01T01:25:49;20.13;;;12.45;;
63087;SDS011;49173;43.164;27.786;2023-02-01T01:28:15;27.17;;;14.52;;
63087;SDS011;49173;43.164;27.786;2023-02-01T01:30:41;26.80;;;14.00;;
63087;SDS011;49173;43.164;27.786;2023-02-01T01:33:07;20.67;;;13.00;;
63087;SDS011;49173;43.164;27.786;2023-02-01T01:35:32;23.27;;;12.18;;
63087;SDS011;49173;43.164;27.786;2023-02-01T01:37:59;21.10;;;12.63;;
63087;SDS011;49173;43.164;27.786;2023-02-01T01:40:26;23.48;;;14.27;;
63087;SDS011;49173;43.164;27.786;2023-02-01T01:42:53;20.08;;;11.50;;
63087;SDS011;49173;43.164;27.786;2023-02-01T01:45:25;16.77;;;10.25;;
63087;SDS011;49173;43.164;27.786;2023-02-01T01:47:53;17.90;;;10.77;;
63087;SDS011;49173;43.164;27.786;2023-02-01T01:50:29;22.20;;;13.90;;
63087;SDS011;49173;43.164;27.786;2023-02-01T01:53:00;16.48;;;10.38;;
63087;SDS011;49173;43.164;27.786;2023-02-01T01:55:29;17.90;;;11.40;;
63087;SDS011;49173;43.164;27.786;2023-02-01T01:58:00;21.23;;;11.70;;
63087;SDS011;49173;43.164;27.786;2023-02-01T02:00:32;15.90;;;10.70;;
63087;SDS011;49173;43.164;27.786;2023-02-01T02:02:59;19.23;;;10.80;;
63087;SDS011;49173;43.164;27.786;2023-02-01T02:05:29;16.17;;;9.77;;
63087;SDS011;49173;43.164;27.786;2023-02-01T02:07:57;17.05;;;10.52;;
63087;SDS011;49173;43.164;27.786;2023-02-01T02:10:26;15.65;;;9.73;;
63087;SDS011;49173;43.164;27.786;2023-02-01T02:13:13;16.83;;;10.40;;
63087;SDS011;49173;43.164;27.786;2023-02-01T02:15:43;13.98;;;9.45;;
63087;SDS011;49173;43.164;27.786;2023-02-01T02:18:27;15.43;;;10.32;;
63087;SDS011;49173;43.164;27.786;2023-02-01T02:35:01;16.77;;;10.73;;
63087;SDS011;49173;43.164;27.786;2023-02-01T02:45:30;18.00;;;11.55;;
63087;SDS011;49173;43.164;27.786;2023-02-01T02:50:46;20.02;;;12.55;;
63087;SDS011;49173;43.164;27.786;2023-02-01T02:53:57;19.90;;;12.63;;
63087;SDS011;49173;43.164;27.786;2023-02-01T02:56:40;20.88;;;13.10;;
63087;SDS011;49173;43.164;27.786;2023-02-01T02:59:26;20.98;;;12.00;;
63087;SDS011;49173;43.164;27.786;2023-02-01T03:02:13;20.48;;;13.18;;
63087;SDS011;49173;43.164;27.786;2023-02-01T03:04:58;21.80;;;12.43;;
63087;SDS011;49173;43.164;27.786;2023-02-01T03:10:32;21.25;;;13.40;;
63087;SDS011;49173;43.164;27.786;2023-02-01T03:13:16;22.60;;;12.82;;
63087;SDS011;49173;43.164;27.786;2023-02-01T03:18:35;20.92;;;13.18;;
63087;SDS011;49173;43.164;27.786;2023-02-01T03:21:19;21.67;;;12.73;;
63087;SDS011;49173;43.164;27.786;2023-02-01T03:23:58;50.75;;;21.63;;
63087;SDS011;49173;43.164;27.786;2023-02-01T03:26:33;79.07;;;32.30;;
63087;SDS011;49173;43.164;27.786;2023-02-01T03:29:13;48.85;;;22.15;;
63087;SDS011;49173;43.164;27.786;2023-02-01T03:31:43;34.10;;;16.63;;
63087;SDS011;49173;43.164;27.786;2023-02-01T03:34:10;23.00;;;13.48;;
63087;SDS011;49173;43.164;27.786;2023-02-01T03:36:40;21.85;;;11.68;;
63087;SDS011;49173;43.164;27.786;2023-02-01T03:39:32;19.15;;;11.07;;
63087;SDS011;49173;43.164;27.786;2023-02-01T03:42:12;33.90;;;17.37;;
63087;SDS011;49173;43.164;27.786;2023-02-01T03:47:39;18.02;;;12.13;;
63087;SDS011;49173;43.164;27.786;2023-02-01T03:50:14;18.55;;;10.70;;
63087;SDS011;49173;43.164;27.786;2023-02-01T03:52:48;20.50;;;10.95;;
63087;SDS011;49173;43.164;27.786;2023-02-01T03:55:20;18.67;;;11.10;;
63087;SDS011;49173;43.164;27.786;2023-02-01T03:57:55;19.80;;;12.07;;
63087;SDS011;49173;43.164;27.786;2023-02-01T04:00:26;25.48;;;15.50;;
63087;SDS011;49173;43.164;27.786;2023-02-01T04:02:52;26.27;;;13.70;;
63087;SDS011;49173;43.164;27.786;2023-02-01T04:05:18;17.52;;;12.13;;
63087;SDS011;49173;43.164;27.786;2023-02-01T04:07:45;28.08;;;15.98;;
63087;SDS011;49173;43.164;27.786;2023-02-01T04:10:11;24.23;;;15.18;;
63087;SDS011;49173;43.164;27.786;2023-02-01T04:12:38;20.83;;;13.70;;
63087;SDS011;49173;43.164;27.786;2023-02-01T04:15:04;16.45;;;11.02;;
63087;SDS011;49173;43.164;27.786;2023-02-01T04:17:30;20.73;;;12.32;;
63087;SDS011;49173;43.164;27.786;2023-02-01T04:19:56;16.48;;;11.60;;
63087;SDS011;49173;43.164;27.786;2023-02-01T04:22:22;16.83;;;12.23;;
63087;SDS011;49173;43.164;27.786;2023-02-01T04:24:47;16.50;;;11.55;;
63087;SDS011;49173;43.164;27.786;2023-02-01T04:27:13;20.60;;;12.48;;
63087;SDS011;49173;43.164;27.786;2023-02-01T04:29:39;16.88;;;11.23;;
63087;SDS011;49173;43.164;27.786;2023-02-01T04:32:06;16.98;;;10.18;;
63087;SDS011;49173;43.164;27.786;2023-02-01T04:34:32;17.42;;;10.23;;
63087;SDS011;49173;43.164;27.786;2023-02-01T04:36:58;18.75;;;12.30;;
63087;SDS011;49173;43.164;27.786;2023-02-01T04:39:24;17.50;;;11.45;;
63087;SDS011;49173;43.164;27.786;2023-02-01T04:41:50;21.85;;;11.45;;
63087;SDS011;49173;43.164;27.786;2023-02-01T04:44:16;21.90;;;11.43;;
63087;SDS011;49173;43.164;27.786;2023-02-01T04:46:43;18.42;;;11.32;;
63087;SDS011;49173;43.164;27.786;2023-02-01T04:49:11;16.50;;;11.65;;
63087;SDS011;49173;43.164;27.786;2023-02-01T04:51:38;22.52;;;13.52;;
63087;SDS011;49173;43.164;27.786;2023-02-01T04:54:04;24.15;;;13.52;;
63087;SDS011;49173;43.164;27.786;2023-02-01T04:56:30;18.08;;;11.07;;
63087;SDS011;49173;43.164;27.786;2023-02-01T04:58:56;16.38;;;10.68;;
63087;SDS011;49173;43.164;27.786;2023-02-01T05:01:22;20.25;;;10.93;;
63087;SDS011;49173;43.164;27.786;2023-02-01T05:03:50;17.65;;;11.23;;
63087;SDS011;49173;43.164;27.786;2023-02-01T05:06:16;19.90;;;11.80;;
63087;SDS011;49173;43.164;27.786;2023-02-01T05:08:42;26.67;;;14.93;;
63087;SDS011;49173;43.164;27.786;2023-02-01T05:11:08;26.77;;;14.35;;
63087;SDS011;49173;43.164;27.786;2023-02-01T05:13:53;31.90;;;14.43;;
63087;SDS011;49173;43.164;27.786;2023-02-01T05:16:19;28.25;;;15.88;;
63087;SDS011;49173;43.164;27.786;2023-02-01T05:18:45;61.22;;;28.80;;
63087;SDS011;49173;43.164;27.786;2023-02-01T05:21:11;29.77;;;18.17;;
63087;SDS011;49173;43.164;27.786;2023-02-01T05:23:36;19.85;;;12.20;;
63087;SDS011;49173;43.164;27.786;2023-02-01T05:26:22;25.63;;;16.85;;
63087;SDS011;49173;43.164;27.786;2023-02-01T05:28:48;17.42;;;11.80;;
63087;SDS011;49173;43.164;27.786;2023-02-01T05:31:14;16.45;;;11.65;;
63087;SDS011;49173;43.164;27.786;2023-02-01T05:33:40;22.00;;;12.98;;
63087;SDS011;49173;43.164;27.786;2023-02-01T05:36:06;16.45;;;11.63;;
63087;SDS011;49173;43.164;27.786;2023-02-01T05:38:32;20.15;;;10.93;;
63087;SDS011;49173;43.164;27.786;2023-02-01T05:40:58;18.75;;;11.07;;
63087;SDS011;49173;43.164;27.786;2023-02-01T05:43:24;22.58;;;14.18;;
63087;SDS011;49173;43.164;27.786;2023-02-01T05:45:51;21.42;;;11.93;;
63087;SDS011;49173;43.164;27.786;2023-02-01T05:48:18;20.27;;;11.07;;
63087;SDS011;49173;43.164;27.786;2023-02-01T05:50:43;17.13;;;12.48;;
63087;SDS011;49173;43.164;27.786;2023-02-01T05:53:09;17.98;;;13.25;;
63087;SDS011;49173;43.164;27.786;2023-02-01T05:55:36;20.63;;;12.93;;
63087;SDS011;49173;43.164;27.786;2023-02-01T05:58:03;28.15;;;16.90;;
63087;SDS011;49173;43.164;27.786;2023-02-01T06:00:29;18.85;;;13.10;;
63087;SDS011;49173;43.164;27.786;2023-02-01T06:02:56;18.42;;;10.85;;
63087;SDS011;49173;43.164;27.786;2023-02-01T06:05:21;14.23;;;9.80;;
63087;SDS011;49173;43.164;27.786;2023-02-01T06:07:47;13.30;;;9.70;;
63087;SDS011;49173;43.164;27.786;2023-02-01T06:10:15;14.93;;;10.15;;
63087;SDS011;49173;43.164;27.786;2023-02-01T06:12:42;22.23;;;16.10;;
63087;SDS011;49173;43.164;27.786;2023-02-01T06:15:08;20.08;;;14.23;;
63087;SDS011;49173;43.164;27.786;2023-02-01T06:17:34;20.27;;;15.35;;
63087;SDS011;49173;43.164;27.786;2023-02-01T06:20:00;19.05;;;13.57;;
63087;SDS011;49173;43.164;27.786;2023-02-01T06:22:25;17.98;;;12.68;;
63087;SDS011;49173;43.164;27.786;2023-02-01T06:24:51;21.45;;;15.23;;
63087;SDS011;49173;43.164;27.786;2023-02-01T06:27:17;26.00;;;16.83;;
63087;SDS011;49173;43.164;27.786;2023-02-01T06:29:43;27.27;;;17.35;;
63087;SDS011;49173;43.164;27.786;2023-02-01T06:32:08;25.05;;;16.52;;
63087;SDS011;49173;43.164;27.786;2023-02-01T06:34:35;26.55;;;17.80;;
63087;SDS011;49173;43.164;27.786;2023-02-01T06:37:02;32.08;;;18.38;;
63087;SDS011;49173;43.164;27.786;2023-02-01T06:39:28;28.30;;;17.88;;
63087;SDS011;49173;43.164;27.786;2023-02-01T06:41:53;25.58;;;13.80;;
63087;SDS011;49173;43.164;27.786;2023-02-01T06:44:19;16.08;;;10.00;;
63087;SDS011;49173;43.164;27.786;2023-02-01T06:46:46;13.45;;;8.48;;
63087;SDS011;49173;43.164;27.786;2023-02-01T06:49:11;25.88;;;14.25;;
63087;SDS011;49173;43.164;27.786;2023-02-01T06:51:37;25.15;;;13.50;;
63087;SDS011;49173;43.164;27.786;2023-02-01T06:54:03;15.63;;;10.38;;
63087;SDS011;49173;43.164;27.786;2023-02-01T06:56:29;16.13;;;10.82;;
63087;SDS011;49173;43.164;27.786;2023-02-01T06:58:56;10.65;;;7.40;;
63087;SDS011;49173;43.164;27.786;2023-02-01T07:01:22;12.30;;;8.05;;
63087;SDS011;49173;43.164;27.786;2023-02-01T07:03:51;10.32;;;7.57;;
63087;SDS011;49173;43.164;27.786;2023-02-01T07:06:17;10.85;;;7.47;;
63087;SDS011;49173;43.164;27.786;2023-02-01T07:08:44;11.57;;;6.82;;
63087;SDS011;49173;43.164;27.786;2023-02-01T07:11:11;14.35;;;9.43;;
63087;SDS011;49173;43.164;27.786;2023-02-01T07:13:38;15.73;;;9.48;;
63087;SDS011;49173;43.164;27.786;2023-02-01T07:16:05;11.93;;;8.05;;
63087;SDS011;49173;43.164;27.786;2023-02-01T07:18:34;11.75;;;7.57;;
63087;SDS011;49173;43.164;27.786;2023-02-01T07:21:00;11.98;;;7.93;;
63087;SDS011;49173;43.164;27.786;2023-02-01T07:23:26;12.68;;;8.80;;
63087;SDS011;49173;43.164;27.786;2023-02-01T07:25:53;14.15;;;8.48;;
63087;SDS011;49173;43.164;27.786;2023-02-01T07:28:23;16.00;;;9.90;;
63087;SDS011;49173;43.164;27.786;2023-02-01T07:30:49;11.35;;;8.00;;
63087;SDS011;49173;43.164;27.786;2023-02-01T07:33:23;14.73;;;9.30;;
63087;SDS011;49173;43.164;27.786;2023-02-01T07:35:50;12.38;;;7.93;;
63087;SDS011;49173;43.164;27.786;2023-02-01T07:38:17;13.18;;;7.45;;
63087;SDS011;49173;43.164;27.786;2023-02-01T07:40:43;13.00;;;7.65;;
63087;SDS011;49173;43.164;27.786;2023-02-01T07:43:09;11.43;;;7.53;;
63087;SDS011;49173;43.164;27.786;2023-02-01T07:45:35;14.02;;;7.68;;
63087;SDS011;49173;43.164;27.786;2023-02-01T07:48:02;15.35;;;8.40;;
63087;SDS011;49173;43.164;27.786;2023-02-01T07:50:28;10.05;;;6.57;;
63087;SDS011;49173;43.164;27.786;2023-02-01T07:52:54;11.30;;;6.65;;
63087;SDS011;49173;43.164;27.786;2023-02-01T07:55:20;9.32;;;6.72;;
63087;SDS011;49173;43.164;27.786;2023-02-01T07:57:46;12.07;;;6.80;;
63087;SDS011;49173;43.164;27.786;2023-02-01T08:00:13;9.18;;;6.25;;
63087;SDS011;49173;43.164;27.786;2023-02-01T08:02:58;6.65;;;5.57;;
63087;SDS011;49173;43.164;27.786;2023-02-01T08:05:24;11.27;;;6.25;;
63087;SDS011;49173;43.164;27.786;2023-02-01T08:07:50;11.82;;;7.78;;
63087;SDS011;49173;43.164;27.786;2023-02-01T08:10:16;8.40;;;5.90;;
63087;SDS011;49173;43.164;27.786;2023-02-01T08:12:43;11.27;;;7.35;;
63087;SDS011;49173;43.164;27.786;2023-02-01T08:15:17;11.90;;;7.70;;
63087;SDS011;49173;43.164;27.786;2023-02-01T08:17:49;11.38;;;7.40;;
63087;SDS011;49173;43.164;27.786;2023-02-01T08:20:18;10.25;;;7.28;;
63087;SDS011;49173;43.164;27.786;2023-02-01T08:22:47;10.68;;;6.97;;
63087;SDS011;49173;43.164;27.786;2023-02-01T08:25:12;9.95;;;6.95;;
63087;SDS011;49173;43.164;27.786;2023-02-01T08:27:38;9.93;;;6.65;;
63087;SDS011;49173;43.164;27.786;2023-02-01T08:30:05;12.00;;;7.22;;
63087;SDS011;49173;43.164;27.786;2023-02-01T08:32:33;9.20;;;6.68;;
63087;SDS011;49173;43.164;27.786;2023-02-01T08:34:59;10.73;;;7.10;;
63087;SDS011;49173;43.164;27.786;2023-02-01T08:37:25;9.93;;;6.38;;
63087;SDS011;49173;43.164;27.786;2023-02-01T08:39:51;8.18;;;5.95;;
63087;SDS011;49173;43.164;27.786;2023-02-01T08:42:17;7.35;;;5.45;;
63087;SDS011;49173;43.164;27.786;2023-02-01T08:45:02;10.32;;;5.57;;
63087;SDS011;49173;43.164;27.786;2023-02-01T08:47:29;7.32;;;5.28;;
63087;SDS011;49173;43.164;27.786;2023-02-01T08:49:56;7.07;;;5.18;;
63087;SDS011;49173;43.164;27.786;2023-02-01T08:52:22;8.45;;;5.15;;
63087;SDS011;49173;43.164;27.786;2023-02-01T08:54:48;7.88;;;4.75;;
63087;SDS011;49173;43.164;27.786;2023-02-01T08:57:14;6.82;;;4.80;;
63087;SDS011;49173;43.164;27.786;2023-02-01T08:59:40;6.75;;;4.85;;
63087;SDS011;49173;43.164;27.786;2023-02-01T09:02:07;7.18;;;4.85;;
63087;SDS011;49173;43.164;27.786;2023-02-01T09:04:37;7.43;;;5.30;;
63087;SDS011;49173;43.164;27.786;2023-02-01T09:07:02;10.48;;;5.78;;
63087;SDS011;49173;43.164;27.786;2023-02-01T09:09:28;9.10;;;5.68;;
63087;SDS011;49173;43.164;27.786;2023-02-01T09:11:54;10.30;;;5.63;;
63087;SDS011;49173;43.164;27.786;2023-02-01T09:14:20;8.23;;;5.28;;
63087;SDS011;49173;43.164;27.786;2023-02-01T09:16:45;8.45;;;5.22;;
63087;SDS011;49173;43.164;27.786;2023-02-01T09:19:11;6.85;;;4.95;;
63087;SDS011;49173;43.164;27.786;2023-02-01T09:21:37;8.10;;;5.00;;
63087;SDS011;49173;43.164;27.786;2023-02-01T09:24:03;7.40;;;4.75;;
63087;SDS011;49173;43.164;27.786;2023-02-01T09:26:29;8.38;;;5.45;;
63087;SDS011;49173;43.164;27.786;2023-02-01T09:28:55;7.43;;;5.18;;
63087;SDS011;49173;43.164;27.786;2023-02-01T09:31:21;8.82;;;5.53;;
63087;SDS011;49173;43.164;27.786;2023-02-01T09:33:47;10.07;;;5.72;;
63087;SDS011;49173;43.164;27.786;2023-02-01T09:36:12;9.35;;;5.32;;
63087;SDS011;49173;43.164;27.786;2023-02-01T09:38:38;10.10;;;5.82;;
63087;SDS011;49173;43.164;27.786;2023-02-01T09:46:57;9.85;;;5.50;;
63087;SDS011;49173;43.164;27.786;2023-02-01T09:52:41;11.68;;;6.45;;
63087;SDS011;49173;43.164;27.786;2023-02-01T09:55:19;8.13;;;5.75;;
63087;SDS011;49173;43.164;27.786;2023-02-01T09:57:54;7.47;;;4.80;;
63087;SDS011;49173;43.164;27.786;2023-02-01T10:00:28;10.20;;;5.20;;
63087;SDS011;49173;43.164;27.786;2023-02-01T10:02:57;9.73;;;6.60;;
63087;SDS011;49173;43.164;27.786;2023-02-01T10:05:31;10.18;;;5.93;;
63087;SDS011;49173;43.164;27.786;2023-02-01T10:08:04;6.97;;;5.30;;
63087;SDS011;49173;43.164;27.786;2023-02-01T10:13:16;7.43;;;4.65;;
63087;SDS011;49173;43.164;27.786;2023-02-01T10:15:55;9.23;;;5.10;;
63087;SDS011;49173;43.164;27.786;2023-02-01T10:19:00;8.43;;;5.22;;
63087;SDS011;49173;43.164;27.786;2023-02-01T10:24:40;8.07;;;4.72;;
63087;SDS011;49173;43.164;27.786;2023-02-01T10:27:33;7.47;;;5.03;;
63087;SDS011;49173;43.164;27.786;2023-02-01T10:30:12;10.50;;;5.90;;
63087;SDS011;49173;43.164;27.786;2023-02-01T10:32:43;9.25;;;4.82;;
63087;SDS011;49173;43.164;27.786;2023-02-01T10:35:12;6.88;;;4.50;;
63087;SDS011;49173;43.164;27.786;2023-02-01T10:37:41;9.48;;;5.53;;
63087;SDS011;49173;43.164;27.786;2023-02-01T10:42:37;8.48;;;4.65;;
63087;SDS011;49173;43.164;27.786;2023-02-01T10:45:05;10.15;;;5.22;;
63087;SDS011;49173;43.164;27.786;2023-02-01T10:47:32;7.97;;;5.03;;
63087;SDS011;49173;43.164;27.786;2023-02-01T10:50:09;7.53;;;4.40;;
63087;SDS011;49173;43.164;27.786;2023-02-01T10:52:51;7.45;;;4.80;;
63087;SDS011;49173;43.164;27.786;2023-02-01T10:55:27;7.60;;;4.28;;
63087;SDS011;49173;43.164;27.786;2023-02-01T10:58:03;7.38;;;4.03;;
63087;SDS011;49173;43.164;27.786;2023-02-01T11:00:45;6.78;;;3.30;;
63087;SDS011;49173;43.164;27.786;2023-02-01T11:08:57;5.43;;;3.25;;
63087;SDS011;49173;43.164;27.786;2023-02-01T11:11:25;7.55;;;4.53;;
63087;SDS011;49173;43.164;27.786;2023-02-01T11:13:52;10.05;;;4.47;;
63087;SDS011;49173;43.164;27.786;2023-02-01T11:17:12;6.28;;;3.90;;
63087;SDS011;49173;43.164;27.786;2023-02-01T11:19:17;6.82;;;3.30;;
63087;SDS011;49173;43.164;27.786;2023-02-01T11:22:03;8.10;;;4.00;;
63087;SDS011;49173;43.164;27.786;2023-02-01T11:24:31;6.25;;;4.00;;
63087;SDS011;49173;43.164;27.786;2023-02-01T11:27:04;6.38;;;3.58;;
63087;SDS011;49173;43.164;27.786;2023-02-01T11:29:38;5.13;;;3.60;;
63087;SDS011;49173;43.164;27.786;2023-02-01T11:32:08;6.90;;;3.38;;
63087;SDS011;49173;43.164;27.786;2023-02-01T11:34:38;7.07;;;3.93;;
63087;SDS011;49173;43.164;27.786;2023-02-01T11:37:04;6.35;;;3.50;;
63087;SDS011;49173;43.164;27.786;2023-02-01T11:39:52;6.07;;;3.15;;
63087;SDS011;49173;43.164;27.786;2023-02-01T11:42:20;4.72;;;3.47;;
63087;SDS011;49173;43.164;27.786;2023-02-01T11:44:46;10.38;;;6.38;;
63087;SDS011;49173;43.164;27.786;2023-02-01T11:47:28;7.80;;;4.28;;
63087;SDS011;49173;43.164;27.786;2023-02-01T11:50:00;6.25;;;3.67;;
63087;SDS011;49173;43.164;27.786;2023-02-01T11:55:38;7.45;;;4.57;;
63087;SDS011;49173;43.164;27.786;2023-02-01T11:58:20;6.45;;;4.57;;
63087;SDS011;49173;43.164;27.786;2023-02-01T12:01:25;6.05;;;3.60;;
63087;SDS011;49173;43.164;27.786;2023-02-01T12:23:06;6.88;;;3.72;;
63087;SDS011;49173;43.164;27.786;2023-02-01T12:26:37;6.15;;;3.58;;
63087;SDS011;49173;43.164;27.786;2023-02-01T12:34:32;6.22;;;4.15;;
63087;SDS011;49173;43.164;27.786;2023-02-01T12:39:56;6.32;;;4.60;;
63087;SDS011;49173;43.164;27.786;2023-02-01T12:42:28;6.97;;;3.97;;
63087;SDS011;49173;43.164;27.786;2023-02-01T12:50:58;12.17;;;5.90;;
63087;SDS011;49173;43.164;27.786;2023-02-01T12:53:30;6.60;;;3.25;;
63087;SDS011;49173;43.164;27.786;2023-02-01T12:56:07;6.05;;;3.58;;
63087;SDS011;49173;43.164;27.786;2023-02-01T13:01:07;5.88;;;3.78;;
63087;SDS011;49173;43.164;27.786;2023-02-01T13:03:41;5.30;;;3.20;;
63087;SDS011;49173;43.164;27.786;2023-02-01T13:07:00;5.68;;;3.45;;
63087;SDS011;49173;43.164;27.786;2023-02-01T13:12:21;5.97;;;3.63;;
63087;SDS011;49173;43.164;27.786;2023-02-01T13:18:03;6.63;;;4.10;;
63087;SDS011;49173;43.164;27.786;2023-02-01T13:20:41;6.25;;;4.07;;
63087;SDS011;49173;43.164;27.786;2023-02-01T13:23:38;5.95;;;3.88;;
63087;SDS011;49173;43.164;27.786;2023-02-01T13:26:06;5.50;;;3.20;;
63087;SDS011;49173;43.164;27.786;2023-02-01T13:31:28;6.88;;;3.45;;
63087;SDS011;49173;43.164;27.786;2023-02-01T13:36:56;5.38;;;3.67;;
63087;SDS011;49173;43.164;27.786;2023-02-01T13:42:31;4.50;;;3.35;;
63087;SDS011;49173;43.164;27.786;2023-02-01T13:45:03;5.07;;;3.00;;
63087;SDS011;49173;43.164;27.786;2023-02-01T13:47:40;4.70;;;3.20;;
63087;SDS011;49173;43.164;27.786;2023-02-01T13:52:52;5.35;;;3.35;;
63087;SDS011;49173;43.164;27.786;2023-02-01T13:57:46;6.85;;;3.90;;
63087;SDS011;49173;43.164;27.786;2023-02-01T14:00:51;5.15;;;3.33;;
63087;SDS011;49173;43.164;27.786;2023-02-01T14:03:14;5.47;;;3.20;;
63087;SDS011;49173;43.164;27.786;2023-02-01T14:08:13;4.72;;;3.30;;
63087;SDS011;49173;43.164;27.786;2023-02-01T14:11:01;6.28;;;3.38;;
63087;SDS011;49173;43.164;27.786;2023-02-01T14:13:33;4.37;;;3.10;;
63087;SDS011;49173;43.164;27.786;2023-02-01T14:26:26;8.65;;;5.60;;
63087;SDS011;49173;43.164;27.786;2023-02-01T14:34:36;9.27;;;5.97;;
63087;SDS011;49173;43.164;27.786;2023-02-01T14:40:03;14.60;;;9.32;;
63087;SDS011;49173;43.164;27.786;2023-02-01T14:43:04;35.60;;;15.07;;
63087;SDS011;49173;43.164;27.786;2023-02-01T14:48:45;18.98;;;10.80;;
63087;SDS011;49173;43.164;27.786;2023-02-01T14:50:47;13.10;;;7.80;;
63087;SDS011;49173;43.164;27.786;2023-02-01T14:53:23;12.88;;;7.60;;
63087;SDS011;49173;43.164;27.786;2023-02-01T14:56:06;10.43;;;7.00;;
63087;SDS011;49173;43.164;27.786;2023-02-01T14:59:00;15.02;;;9.70;;
63087;SDS011;49173;43.164;27.786;2023-02-01T15:01:36;18.63;;;12.23;;
63087;SDS011;49173;43.164;27.786;2023-02-01T15:04:28;24.65;;;14.43;;
63087;SDS011;49173;43.164;27.786;2023-02-01T15:07:09;25.70;;;13.05;;
63087;SDS011;49173;43.164;27.786;2023-02-01T15:09:44;29.17;;;15.90;;
63087;SDS011;49173;43.164;27.786;2023-02-01T15:12:18;17.50;;;10.95;;
63087;SDS011;49173;43.164;27.786;2023-02-01T15:15:12;18.60;;;9.43;;
63087;SDS011;49173;43.164;27.786;2023-02-01T15:17:58;16.52;;;8.93;;
63087;SDS011;49173;43.164;27.786;2023-02-01T15:20:29;18.95;;;11.57;;
63087;SDS011;49173;43.164;27.786;2023-02-01T15:22:59;20.20;;;11.68;;
63087;SDS011;49173;43.164;27.786;2023-02-01T15:25:29;12.05;;;6.70;;
63087;SDS011;49173;43.164;27.786;2023-02-01T15:28:02;14.95;;;7.95;;
63087;SDS011;49173;43.164;27.786;2023-02-01T15:30:30;18.90;;;11.80;;
63087;SDS011;49173;43.164;27.786;2023-02-01T15:33:05;23.58;;;12.70;;
63087;SDS011;49173;43.164;27.786;2023-02-01T15:35:38;15.52;;;10.45;;
63087;SDS011;49173;43.164;27.786;2023-02-01T15:41:01;18.50;;;11.50;;
63087;SDS011;49173;43.164;27.786;2023-02-01T15:46:36;13.23;;;9.00;;
63087;SDS011;49173;43.164;27.786;2023-02-01T15:49:17;15.98;;;10.73;;
63087;SDS011;49173;43.164;27.786;2023-02-01T15:51:51;13.18;;;8.95;;
63087;SDS011;49173;43.164;27.786;2023-02-01T15:54:21;15.05;;;9.35;;
63087;SDS011;49173;43.164;27.786;2023-02-01T15:57:00;13.18;;;8.50;;
63087;SDS011;49173;43.164;27.786;2023-02-01T15:59:35;14.40;;;8.63;;
63087;SDS011;49173;43.164;27.786;2023-02-01T16:02:27;12.30;;;8.15;;
63087;SDS011;49173;43.164;27.786;2023-02-01T16:05:05;11.77;;;7.20;;
63087;SDS011;49173;43.164;27.786;2023-02-01T16:07:57;12.05;;;7.60;;
63087;SDS011;49173;43.164;27.786;2023-02-01T16:10:31;8.15;;;5.82;;
63087;SDS011;49173;43.164;27.786;2023-02-01T16:13:04;12.32;;;6.78;;
63087;SDS011;49173;43.164;27.786;2023-02-01T16:15:30;26.05;;;12.10;;
63087;SDS011;49173;43.164;27.786;2023-02-01T16:18:04;30.65;;;14.38;;
63087;SDS011;49173;43.164;27.786;2023-02-01T16:20:34;18.45;;;9.13;;
63087;SDS011;49173;43.164;27.786;2023-02-01T16:23:03;11.60;;;7.20;;
63087;SDS011;49173;43.164;27.786;2023-02-01T16:25:30;17.08;;;9.05;;
63087;SDS011;49173;43.164;27.786;2023-02-01T16:27:57;25.95;;;14.73;;
63087;SDS011;49173;43.164;27.786;2023-02-01T16:30:24;27.08;;;13.40;;
63087;SDS011;49173;43.164;27.786;2023-02-01T16:32:52;21.08;;;9.68;;
63087;SDS011;49173;43.164;27.786;2023-02-01T16:35:34;19.70;;;13.02;;
63087;SDS011;49173;43.164;27.786;2023-02-01T16:38:08;18.20;;;12.20;;
63087;SDS011;49173;43.164;27.786;2023-02-01T16:40:39;12.60;;;8.70;;
63087;SDS011;49173;43.164;27.786;2023-02-01T16:43:12;14.40;;;8.80;;
63087;SDS011;49173;43.164;27.786;2023-02-01T16:45:40;9.55;;;6.20;;
63087;SDS011;49173;43.164;27.786;2023-02-01T16:48:16;22.77;;;9.70;;
63087;SDS011;49173;43.164;27.786;2023-02-01T16:50:55;9.25;;;5.65;;
63087;SDS011;49173;43.164;27.786;2023-02-01T16:53:26;8.30;;;5.20;;
63087;SDS011;49173;43.164;27.786;2023-02-01T16:55:54;13.13;;;5.97;;
63087;SDS011;49173;43.164;27.786;2023-02-01T16:58:23;28.85;;;12.20;;
63087;SDS011;49173;43.164;27.786;2023-02-01T17:00:53;25.58;;;11.95;;
63087;SDS011;49173;43.164;27.786;2023-02-01T17:03:20;29.40;;;12.23;;
63087;SDS011;49173;43.164;27.786;2023-02-01T17:05:53;32.13;;;14.13;;
63087;SDS011;49173;43.164;27.786;2023-02-01T17:08:28;22.83;;;10.85;;